sensor_id;sensor_type;location;lat;lon;timestamp;P1;durP1;ratioP1;P2;durP2;ratioP2
48809;SDS011;40070;47.322;18.784;2023-04-02T00:01:12;1.79;;;0.59;;
48809;SDS011;40070;47.322;18.784;2023-04-02T00:03:00;1.04;;;0.40;;
48809;SDS011;40070;47.322;18.784;2023-04-02T00:07:25;1.13;;;0.49;;
48809;SDS011;40070;47.322;18.784;2023-04-02T00:09:20;0.76;;;0.40;;
48809;SDS011;40070;47.322;18.784;2023-04-02T00:11:10;0.95;;;0.50;;
48809;SDS011;40070;47.322;18.784;2023-04-02T00:13:24;0.85;;;0.40;;
48809;SDS011;40070;47.322;18.784;2023-04-02T00:15:25;0.57;;;0.40;;
48809;SDS011;40070;47.322;18.784;2023-04-02T00:17:26;0.47;;;0.30;;
48809;SDS011;40070;47.322;18.784;2023-04-02T00:19:45;0.57;;;0.40;;
48809;SDS011;40070;47.322;18.784;2023-04-02T00:21:44;0.86;;;0.40;;
48809;SDS011;40070;47.322;18.784;2023-04-02T00:23:46;1.04;;;0.40;;
48809;SDS011;40070;47.322;18.784;2023-04-02T00:25:47;0.57;;;0.40;;
48809;SDS011;40070;47.322;18.784;2023-04-02T00:27:48;0.57;;;0.30;;
48809;SDS011;40070;47.322;18.784;2023-04-02T00:29:56;0.76;;;0.30;;
48809;SDS011;40070;47.322;18.784;2023-04-02T00:31:51;0.38;;;0.30;;
48809;SDS011;40070;47.322;18.784;2023-04-02T00:33:53;1.62;;;0.50;;
48809;SDS011;40070;47.322;18.784;2023-04-02T00:35:58;0.48;;;0.40;;
48809;SDS011;40070;47.322;18.784;2023-04-02T00:38:01;0.47;;;0.30;;
48809;SDS011;40070;47.322;18.784;2023-04-02T00:40:06;0.47;;;0.30;;
48809;SDS011;40070;47.322;18.784;2023-04-02T00:42:08;0.38;;;0.30;;
48809;SDS011;40070;47.322;18.784;2023-04-02T00:44:10;0.38;;;0.30;;
48809;SDS011;40070;47.322;18.784;2023-04-02T00:46:10;0.38;;;0.30;;
48809;SDS011;40070;47.322;18.784;2023-04-02T00:50:23;0.38;;;0.30;;
48809;SDS011;40070;47.322;18.784;2023-04-02T00:52:17;0.66;;;0.59;;
48809;SDS011;40070;47.322;18.784;2023-04-02T00:54:19;0.66;;;0.30;;
48809;SDS011;40070;47.322;18.784;2023-04-02T00:56:36;1.04;;;0.40;;
48809;SDS011;40070;47.322;18.784;2023-04-02T00:58:31;0.38;;;0.30;;
48809;SDS011;40070;47.322;18.784;2023-04-02T01:00:33;0.19;;;0.20;;
48809;SDS011;40070;47.322;18.784;2023-04-02T01:02:31;0.66;;;0.30;;
48809;SDS011;40070;47.322;18.784;2023-04-02T01:04:33;1.98;;;0.30;;
48809;SDS011;40070;47.322;18.784;2023-04-02T01:06:36;0.95;;;0.40;;
48809;SDS011;40070;47.322;18.784;2023-04-02T01:15:41;1.61;;;0.40;;
48809;SDS011;40070;47.322;18.784;2023-04-02T01:18:07;0.85;;;0.30;;
48809;SDS011;40070;47.322;18.784;2023-04-02T01:22:28;2.75;;;0.89;;
48809;SDS011;40070;47.322;18.784;2023-04-02T01:24:22;0.76;;;0.30;;
48809;SDS011;40070;47.322;18.784;2023-04-02T01:26:54;0.57;;;0.20;;
48809;SDS011;40070;47.322;18.784;2023-04-02T01:29:38;0.47;;;0.30;;
48809;SDS011;40070;47.322;18.784;2023-04-02T01:31:05;0.29;;;0.20;;
48809;SDS011;40070;47.322;18.784;2023-04-02T01:33:07;0.38;;;0.20;;
48809;SDS011;40070;47.322;18.784;2023-04-02T01:35:09;0.29;;;0.30;;
48809;SDS011;40070;47.322;18.784;2023-04-02T01:39:56;1.14;;;0.50;;
48809;SDS011;40070;47.322;18.784;2023-04-02T01:41:53;0.86;;;0.30;;
48809;SDS011;40070;47.322;18.784;2023-04-02T01:44:02;0.86;;;0.40;;
48809;SDS011;40070;47.322;18.784;2023-04-02T01:46:22;0.48;;;0.30;;
48809;SDS011;40070;47.322;18.784;2023-04-02T01:48:04;1.04;;;0.40;;
48809;SDS011;40070;47.322;18.784;2023-04-02T01:52:15;0.76;;;0.40;;
48809;SDS011;40070;47.322;18.784;2023-04-02T01:54:11;0.66;;;0.40;;
48809;SDS011;40070;47.322;18.784;2023-04-02T01:56:20;0.57;;;0.40;;
48809;SDS011;40070;47.322;18.784;2023-04-02T01:58:24;0.38;;;0.30;;
48809;SDS011;40070;47.322;18.784;2023-04-02T02:00:25;1.41;;;0.49;;
48809;SDS011;40070;47.322;18.784;2023-04-02T02:02:33;0.38;;;0.30;;
48809;SDS011;40070;47.322;18.784;2023-04-02T02:04:34;0.38;;;0.30;;
48809;SDS011;40070;47.322;18.784;2023-04-02T02:06:35;1.70;;;0.40;;
48809;SDS011;40070;47.322;18.784;2023-04-02T02:08:46;0.75;;;0.40;;
48809;SDS011;40070;47.322;18.784;2023-04-02T02:10:47;0.57;;;0.30;;
48809;SDS011;40070;47.322;18.784;2023-04-02T02:12:47;0.66;;;0.30;;
48809;SDS011;40070;47.322;18.784;2023-04-02T02:14:56;0.57;;;0.40;;
48809;SDS011;40070;47.322;18.784;2023-04-02T02:16:59;0.66;;;0.40;;
48809;SDS011;40070;47.322;18.784;2023-04-02T02:19:00;0.94;;;0.40;;
48809;SDS011;40070;47.322;18.784;2023-04-02T02:21:01;0.56;;;0.30;;
48809;SDS011;40070;47.322;18.784;2023-04-02T02:23:05;0.47;;;0.30;;
48809;SDS011;40070;47.322;18.784;2023-04-02T02:25:09;0.28;;;0.30;;
48809;SDS011;40070;47.322;18.784;2023-04-02T02:29:11;0.66;;;0.40;;
48809;SDS011;40070;47.322;18.784;2023-04-02T02:31:16;0.94;;;0.40;;
48809;SDS011;40070;47.322;18.784;2023-04-02T02:33:25;0.66;;;0.40;;
48809;SDS011;40070;47.322;18.784;2023-04-02T02:38:19;0.75;;;0.49;;
48809;SDS011;40070;47.322;18.784;2023-04-02T02:40:17;0.37;;;0.30;;
48809;SDS011;40070;47.322;18.784;2023-04-02T02:42:35;0.47;;;0.30;;
48809;SDS011;40070;47.322;18.784;2023-04-02T02:44:33;0.47;;;0.30;;
48809;SDS011;40070;47.322;18.784;2023-04-02T02:46:32;0.75;;;0.40;;
48809;SDS011;40070;47.322;18.784;2023-04-02T02:48:35;0.84;;;0.49;;
48809;SDS011;40070;47.322;18.784;2023-04-02T02:50:37;1.59;;;0.39;;
48809;SDS011;40070;47.322;18.784;2023-04-02T02:52:51;1.68;;;0.49;;
48809;SDS011;40070;47.322;18.784;2023-04-02T02:54:52;1.21;;;0.49;;
48809;SDS011;40070;47.322;18.784;2023-04-02T02:56:54;0.56;;;0.30;;
48809;SDS011;40070;47.322;18.784;2023-04-02T02:58:59;0.47;;;0.30;;
48809;SDS011;40070;47.322;18.784;2023-04-02T03:00:57;0.65;;;0.30;;
48809;SDS011;40070;47.322;18.784;2023-04-02T03:02:58;1.40;;;0.49;;
48809;SDS011;40070;47.322;18.784;2023-04-02T03:05:00;0.65;;;0.39;;
48809;SDS011;40070;47.322;18.784;2023-04-02T03:07:01;1.12;;;0.49;;
48809;SDS011;40070;47.322;18.784;2023-04-02T03:13:32;0.65;;;0.39;;
48809;SDS011;40070;47.322;18.784;2023-04-02T03:17:59;1.12;;;0.49;;
48809;SDS011;40070;47.322;18.784;2023-04-02T03:22:18;0.84;;;0.49;;
48809;SDS011;40070;47.322;18.784;2023-04-02T03:24:28;1.02;;;0.49;;
48809;SDS011;40070;47.322;18.784;2023-04-02T03:26:38;1.58;;;0.79;;
48809;SDS011;40070;47.322;18.784;2023-04-02T03:28:39;0.93;;;0.49;;
48809;SDS011;40070;47.322;18.784;2023-04-02T03:31:04;1.03;;;0.49;;
48809;SDS011;40070;47.322;18.784;2023-04-02T03:33:18;0.56;;;0.40;;
48809;SDS011;40070;47.322;18.784;2023-04-02T03:35:25;0.75;;;0.49;;
48809;SDS011;40070;47.322;18.784;2023-04-02T03:37:25;1.42;;;0.49;;
48809;SDS011;40070;47.322;18.784;2023-04-02T03:39:42;1.04;;;0.50;;
48809;SDS011;40070;47.322;18.784;2023-04-02T03:41:53;1.23;;;0.50;;
48809;SDS011;40070;47.322;18.784;2023-04-02T03:43:57;1.14;;;0.50;;
48809;SDS011;40070;47.322;18.784;2023-04-02T03:46:10;1.23;;;0.50;;
48809;SDS011;40070;47.322;18.784;2023-04-02T03:48:26;0.95;;;0.40;;
48809;SDS011;40070;47.322;18.784;2023-04-02T03:50:39;0.76;;;0.40;;
48809;SDS011;40070;47.322;18.784;2023-04-02T03:52:40;1.79;;;0.59;;
48809;SDS011;40070;47.322;18.784;2023-04-02T03:54:45;0.65;;;0.39;;
48809;SDS011;40070;47.322;18.784;2023-04-02T03:56:58;1.03;;;0.59;;
48809;SDS011;40070;47.322;18.784;2023-04-02T04:01:19;1.67;;;0.69;;
48809;SDS011;40070;47.322;18.784;2023-04-02T04:03:14;1.86;;;0.89;;
48809;SDS011;40070;47.322;18.784;2023-04-02T04:05:28;1.94;;;0.89;;
48809;SDS011;40070;47.322;18.784;2023-04-02T04:07:28;2.77;;;1.08;;
48809;SDS011;40070;47.322;18.784;2023-04-02T04:09:31;2.40;;;1.08;;
48809;SDS011;40070;47.322;18.784;2023-04-02T04:11:59;2.95;;;1.08;;
48809;SDS011;40070;47.322;18.784;2023-04-02T04:13:48;1.29;;;0.59;;
48809;SDS011;40070;47.322;18.784;2023-04-02T04:16:06;0.65;;;0.39;;
48809;SDS011;40070;47.322;18.784;2023-04-02T04:20:42;1.30;;;0.49;;
48809;SDS011;40070;47.322;18.784;2023-04-02T04:22:45;1.40;;;0.59;;
48809;SDS011;40070;47.322;18.784;2023-04-02T04:24:50;1.31;;;0.49;;
48809;SDS011;40070;47.322;18.784;2023-04-02T04:27:07;1.22;;;0.49;;
48809;SDS011;40070;47.322;18.784;2023-04-02T04:31:37;1.41;;;0.69;;
48809;SDS011;40070;47.322;18.784;2023-04-02T04:33:46;1.50;;;0.59;;
48809;SDS011;40070;47.322;18.784;2023-04-02T04:35:58;0.94;;;0.59;;
48809;SDS011;40070;47.322;18.784;2023-04-02T04:38:14;1.22;;;0.49;;
48809;SDS011;40070;47.322;18.784;2023-04-02T04:40:27;1.32;;;0.49;;
48809;SDS011;40070;47.322;18.784;2023-04-02T04:42:23;1.23;;;0.59;;
48809;SDS011;40070;47.322;18.784;2023-04-02T04:44:43;1.60;;;0.69;;
48809;SDS011;40070;47.322;18.784;2023-04-02T04:46:55;1.50;;;0.59;;
48809;SDS011;40070;47.322;18.784;2023-04-02T04:49:11;1.49;;;0.59;;
48809;SDS011;40070;47.322;18.784;2023-04-02T04:51:23;1.59;;;0.59;;
48809;SDS011;40070;47.322;18.784;2023-04-02T04:53:14;2.05;;;0.69;;
48809;SDS011;40070;47.322;18.784;2023-04-02T04:55:20;2.05;;;0.59;;
48809;SDS011;40070;47.322;18.784;2023-04-02T04:57:32;1.12;;;0.49;;
48809;SDS011;40070;47.322;18.784;2023-04-02T04:59:32;1.03;;;0.59;;
48809;SDS011;40070;47.322;18.784;2023-04-02T05:01:35;1.12;;;0.49;;
48809;SDS011;40070;47.322;18.784;2023-04-02T05:03:50;1.77;;;0.79;;
48809;SDS011;40070;47.322;18.784;2023-04-02T05:06:21;1.30;;;0.59;;
48809;SDS011;40070;47.322;18.784;2023-04-02T05:08:03;1.58;;;0.79;;
48809;SDS011;40070;47.322;18.784;2023-04-02T05:10:10;1.67;;;0.89;;
48809;SDS011;40070;47.322;18.784;2023-04-02T05:12:26;1.21;;;0.59;;
48809;SDS011;40070;47.322;18.784;2023-04-02T05:14:22;1.12;;;0.49;;
48809;SDS011;40070;47.322;18.784;2023-04-02T05:16:44;0.75;;;0.39;;
48809;SDS011;40070;47.322;18.784;2023-04-02T05:19:45;2.05;;;0.79;;
48809;SDS011;40070;47.322;18.784;2023-04-02T05:23:43;0.84;;;0.39;;
48809;SDS011;40070;47.322;18.784;2023-04-02T05:25:26;1.60;;;0.59;;
48809;SDS011;40070;47.322;18.784;2023-04-02T05:27:35;1.21;;;0.59;;
48809;SDS011;40070;47.322;18.784;2023-04-02T05:29:42;2.15;;;0.59;;
48809;SDS011;40070;47.322;18.784;2023-04-02T05:31:54;1.21;;;0.59;;
48809;SDS011;40070;47.322;18.784;2023-04-02T05:33:58;1.77;;;0.59;;
48809;SDS011;40070;47.322;18.784;2023-04-02T05:36:06;1.03;;;0.49;;
48809;SDS011;40070;47.322;18.784;2023-04-02T05:38:12;2.62;;;0.79;;
48809;SDS011;40070;47.322;18.784;2023-04-02T05:40:21;1.40;;;0.69;;
48809;SDS011;40070;47.322;18.784;2023-04-02T05:42:20;1.22;;;0.59;;
48809;SDS011;40070;47.322;18.784;2023-04-02T05:44:20;1.60;;;0.69;;
48809;SDS011;40070;47.322;18.784;2023-04-02T05:46:29;1.04;;;0.49;;
48809;SDS011;40070;47.322;18.784;2023-04-02T05:48:37;1.60;;;0.69;;
48809;SDS011;40070;47.322;18.784;2023-04-02T05:50:48;1.22;;;0.69;;
48809;SDS011;40070;47.322;18.784;2023-04-02T05:57:23;2.56;;;0.89;;
48809;SDS011;40070;47.322;18.784;2023-04-02T05:59:18;1.99;;;0.79;;
48809;SDS011;40070;47.322;18.784;2023-04-02T06:01:32;1.80;;;0.99;;
48809;SDS011;40070;47.322;18.784;2023-04-02T06:05:33;1.42;;;0.69;;
48809;SDS011;40070;47.322;18.784;2023-04-02T06:07:47;2.08;;;0.79;;
48809;SDS011;40070;47.322;18.784;2023-04-02T06:10:09;1.98;;;0.69;;
48809;SDS011;40070;47.322;18.784;2023-04-02T06:12:18;2.36;;;0.99;;
48809;SDS011;40070;47.322;18.784;2023-04-02T06:14:11;1.51;;;0.69;;
48809;SDS011;40070;47.322;18.784;2023-04-02T06:16:13;2.27;;;0.79;;
48809;SDS011;40070;47.322;18.784;2023-04-02T06:18:18;1.79;;;0.89;;
48809;SDS011;40070;47.322;18.784;2023-04-02T06:20:18;1.42;;;0.79;;
48809;SDS011;40070;47.322;18.784;2023-04-02T06:22:22;2.65;;;0.79;;
48809;SDS011;40070;47.322;18.784;2023-04-02T06:24:33;1.32;;;0.59;;
48809;SDS011;40070;47.322;18.784;2023-04-02T06:26:52;1.13;;;0.59;;
48809;SDS011;40070;47.322;18.784;2023-04-02T06:29:07;1.51;;;0.59;;
48809;SDS011;40070;47.322;18.784;2023-04-02T06:31:18;1.80;;;0.69;;
48809;SDS011;40070;47.322;18.784;2023-04-02T06:33:10;1.23;;;0.69;;
48809;SDS011;40070;47.322;18.784;2023-04-02T06:35:11;1.42;;;0.69;;
48809;SDS011;40070;47.322;18.784;2023-04-02T06:37:14;1.33;;;0.59;;
48809;SDS011;40070;47.322;18.784;2023-04-02T06:39:16;1.61;;;0.69;;
48809;SDS011;40070;47.322;18.784;2023-04-02T06:41:22;4.17;;;0.69;;
48809;SDS011;40070;47.322;18.784;2023-04-02T06:43:25;2.66;;;1.29;;
48809;SDS011;40070;47.322;18.784;2023-04-02T06:45:27;1.43;;;0.60;;
48809;SDS011;40070;47.322;18.784;2023-04-02T06:47:36;1.43;;;0.69;;
48809;SDS011;40070;47.322;18.784;2023-04-02T06:49:38;1.81;;;0.79;;
48809;SDS011;40070;47.322;18.784;2023-04-02T06:51:41;2.01;;;0.70;;
48809;SDS011;40070;47.322;18.784;2023-04-02T06:53:49;1.53;;;0.69;;
48809;SDS011;40070;47.322;18.784;2023-04-02T06:56:05;1.82;;;0.70;;
48809;SDS011;40070;47.322;18.784;2023-04-02T06:58:04;2.01;;;0.89;;
48809;SDS011;40070;47.322;18.784;2023-04-02T07:00:08;1.43;;;0.79;;
48809;SDS011;40070;47.322;18.784;2023-04-02T07:04:09;1.92;;;0.79;;
48809;SDS011;40070;47.322;18.784;2023-04-02T07:06:17;1.53;;;0.79;;
48809;SDS011;40070;47.322;18.784;2023-04-02T07:08:11;1.72;;;0.89;;
48809;SDS011;40070;47.322;18.784;2023-04-02T07:10:12;2.87;;;0.79;;
48809;SDS011;40070;47.322;18.784;2023-04-02T07:12:13;2.01;;;0.69;;
48809;SDS011;40070;47.322;18.784;2023-04-02T07:14:14;2.30;;;0.70;;
48809;SDS011;40070;47.322;18.784;2023-04-02T07:16:20;2.10;;;0.89;;
48809;SDS011;40070;47.322;18.784;2023-04-02T07:18:21;1.72;;;0.79;;
48809;SDS011;40070;47.322;18.784;2023-04-02T07:20:37;4.50;;;0.89;;
48809;SDS011;40070;47.322;18.784;2023-04-02T07:22:19;1.91;;;0.79;;
48809;SDS011;40070;47.322;18.784;2023-04-02T07:24:20;2.01;;;0.99;;
48809;SDS011;40070;47.322;18.784;2023-04-02T07:26:24;1.63;;;0.79;;
48809;SDS011;40070;47.322;18.784;2023-04-02T07:28:24;2.39;;;0.79;;
48809;SDS011;40070;47.322;18.784;2023-04-02T07:30:24;1.73;;;0.70;;
48809;SDS011;40070;47.322;18.784;2023-04-02T07:32:25;1.92;;;0.70;;
48809;SDS011;40070;47.322;18.784;2023-04-02T07:34:29;1.92;;;0.80;;
48809;SDS011;40070;47.322;18.784;2023-04-02T07:36:30;2.02;;;0.70;;
48809;SDS011;40070;47.322;18.784;2023-04-02T07:38:31;2.88;;;0.70;;
48809;SDS011;40070;47.322;18.784;2023-04-02T07:40:32;2.02;;;0.80;;
48809;SDS011;40070;47.322;18.784;2023-04-02T07:42:33;2.21;;;0.90;;
48809;SDS011;40070;47.322;18.784;2023-04-02T07:44:34;2.22;;;0.80;;
48809;SDS011;40070;47.322;18.784;2023-04-02T07:46:38;2.03;;;0.90;;
48809;SDS011;40070;47.322;18.784;2023-04-02T07:48:37;2.12;;;0.80;;
48809;SDS011;40070;47.322;18.784;2023-04-02T07:50:38;2.60;;;0.99;;
48809;SDS011;40070;47.322;18.784;2023-04-02T07:52:39;1.93;;;0.90;;
48809;SDS011;40070;47.322;18.784;2023-04-02T07:54:40;2.32;;;0.90;;
48809;SDS011;40070;47.322;18.784;2023-04-02T07:56:46;2.22;;;0.90;;
48809;SDS011;40070;47.322;18.784;2023-04-02T07:58:47;1.65;;;0.70;;
48809;SDS011;40070;47.322;18.784;2023-04-02T08:00:48;2.23;;;0.90;;
48809;SDS011;40070;47.322;18.784;2023-04-02T08:02:50;2.43;;;0.90;;
48809;SDS011;40070;47.322;18.784;2023-04-02T08:04:51;2.23;;;0.80;;
48809;SDS011;40070;47.322;18.784;2023-04-02T08:06:53;1.55;;;0.70;;
48809;SDS011;40070;47.322;18.784;2023-04-02T08:08:55;2.33;;;0.90;;
48809;SDS011;40070;47.322;18.784;2023-04-02T08:10:56;1.46;;;0.70;;
48809;SDS011;40070;47.322;18.784;2023-04-02T08:12:57;1.75;;;0.80;;
48809;SDS011;40070;47.322;18.784;2023-04-02T08:14:57;2.53;;;0.80;;
48809;SDS011;40070;47.322;18.784;2023-04-02T08:16:58;2.43;;;1.00;;
48809;SDS011;40070;47.322;18.784;2023-04-02T08:19:00;2.24;;;0.90;;
48809;SDS011;40070;47.322;18.784;2023-04-02T08:21:00;1.85;;;0.80;;
48809;SDS011;40070;47.322;18.784;2023-04-02T08:23:02;2.14;;;0.80;;
48809;SDS011;40070;47.322;18.784;2023-04-02T08:25:03;1.65;;;0.80;;
48809;SDS011;40070;47.322;18.784;2023-04-02T08:27:04;2.53;;;0.80;;
48809;SDS011;40070;47.322;18.784;2023-04-02T08:29:05;2.43;;;0.90;;
48809;SDS011;40070;47.322;18.784;2023-04-02T08:31:06;2.62;;;1.00;;
48809;SDS011;40070;47.322;18.784;2023-04-02T08:33:07;3.59;;;1.30;;
48809;SDS011;40070;47.322;18.784;2023-04-02T08:35:09;2.91;;;1.20;;
48809;SDS011;40070;47.322;18.784;2023-04-02T08:37:11;2.23;;;0.80;;
48809;SDS011;40070;47.322;18.784;2023-04-02T08:39:12;2.23;;;1.00;;
48809;SDS011;40070;47.322;18.784;2023-04-02T08:41:19;1.94;;;0.80;;
48809;SDS011;40070;47.322;18.784;2023-04-02T08:47:49;2.04;;;0.90;;
48809;SDS011;40070;47.322;18.784;2023-04-02T08:50:16;1.74;;;0.80;;
48809;SDS011;40070;47.322;18.784;2023-04-02T08:52:13;1.93;;;0.80;;
48809;SDS011;40070;47.322;18.784;2023-04-02T08:54:20;2.22;;;0.80;;
48809;SDS011;40070;47.322;18.784;2023-04-02T08:56:26;2.12;;;0.80;;
48809;SDS011;40070;47.322;18.784;2023-04-02T08:58:36;1.94;;;0.70;;
48809;SDS011;40070;47.322;18.784;2023-04-02T09:00:47;2.62;;;1.10;;
48809;SDS011;40070;47.322;18.784;2023-04-02T09:03:20;2.03;;;0.90;;
48809;SDS011;40070;47.322;18.784;2023-04-02T09:05:17;2.72;;;0.90;;
48809;SDS011;40070;47.322;18.784;2023-04-02T09:07:15;2.23;;;1.10;;
48809;SDS011;40070;47.322;18.784;2023-04-02T09:09:17;3.30;;;1.20;;
48809;SDS011;40070;47.322;18.784;2023-04-02T09:11:53;1.94;;;0.90;;
48809;SDS011;40070;47.322;18.784;2023-04-02T09:13:39;2.52;;;0.90;;
48809;SDS011;40070;47.322;18.784;2023-04-02T09:15:59;2.33;;;1.00;;
48809;SDS011;40070;47.322;18.784;2023-04-02T09:17:58;2.42;;;1.00;;
48809;SDS011;40070;47.322;18.784;2023-04-02T09:20:13;1.65;;;0.70;;
48809;SDS011;40070;47.322;18.784;2023-04-02T09:22:25;2.71;;;1.10;;
48809;SDS011;40070;47.322;18.784;2023-04-02T09:24:12;2.72;;;1.00;;
48809;SDS011;40070;47.322;18.784;2023-04-02T09:26:21;2.33;;;0.90;;
48809;SDS011;40070;47.322;18.784;2023-04-02T09:28:20;2.72;;;0.90;;
48809;SDS011;40070;47.322;18.784;2023-04-02T09:32:49;1.65;;;0.80;;
48809;SDS011;40070;47.322;18.784;2023-04-02T09:35:05;2.14;;;0.80;;
48809;SDS011;40070;47.322;18.784;2023-04-02T09:37:19;3.01;;;1.20;;
48809;SDS011;40070;47.322;18.784;2023-04-02T09:41:27;1.85;;;0.70;;
48809;SDS011;40070;47.322;18.784;2023-04-02T09:43:32;1.46;;;0.70;;
48809;SDS011;40070;47.322;18.784;2023-04-02T09:46:04;3.98;;;0.80;;
48809;SDS011;40070;47.322;18.784;2023-04-02T09:47:57;1.75;;;0.80;;
48809;SDS011;40070;47.322;18.784;2023-04-02T09:52:28;2.33;;;1.00;;
48809;SDS011;40070;47.322;18.784;2023-04-02T09:54:13;2.13;;;0.90;;
48809;SDS011;40070;47.322;18.784;2023-04-02T09:56:14;1.85;;;0.70;;
48809;SDS011;40070;47.322;18.784;2023-04-02T09:58:15;3.50;;;1.20;;
48809;SDS011;40070;47.322;18.784;2023-04-02T10:00:20;1.95;;;0.90;;
48809;SDS011;40070;47.322;18.784;2023-04-02T10:02:28;2.53;;;0.90;;
48809;SDS011;40070;47.322;18.784;2023-04-02T10:04:40;2.15;;;0.90;;
48809;SDS011;40070;47.322;18.784;2023-04-02T10:06:47;1.66;;;0.80;;
48809;SDS011;40070;47.322;18.784;2023-04-02T10:08:56;2.73;;;1.10;;
48809;SDS011;40070;47.322;18.784;2023-04-02T10:11:02;1.95;;;0.90;;
48809;SDS011;40070;47.322;18.784;2023-04-02T10:13:21;1.17;;;0.70;;
48809;SDS011;40070;47.322;18.784;2023-04-02T10:15:14;2.15;;;0.80;;
48809;SDS011;40070;47.322;18.784;2023-04-02T10:17:22;1.96;;;0.90;;
48809;SDS011;40070;47.322;18.784;2023-04-02T10:19:24;1.37;;;0.60;;
48809;SDS011;40070;47.322;18.784;2023-04-02T10:21:23;2.06;;;0.90;;
48809;SDS011;40070;47.322;18.784;2023-04-02T10:23:23;1.67;;;0.80;;
48809;SDS011;40070;47.322;18.784;2023-04-02T10:25:24;2.55;;;0.90;;
48809;SDS011;40070;47.322;18.784;2023-04-02T10:27:48;2.16;;;0.80;;
48809;SDS011;40070;47.322;18.784;2023-04-02T10:32:05;2.17;;;0.80;;
48809;SDS011;40070;47.322;18.784;2023-04-02T10:34:30;2.16;;;0.90;;
48809;SDS011;40070;47.322;18.784;2023-04-02T10:36:34;2.07;;;0.80;;
48809;SDS011;40070;47.322;18.784;2023-04-02T10:47:20;5.22;;;1.10;;
48809;SDS011;40070;47.322;18.784;2023-04-02T10:51:41;1.77;;;0.70;;
48809;SDS011;40070;47.322;18.784;2023-04-02T10:53:53;2.06;;;0.90;;
48809;SDS011;40070;47.322;18.784;2023-04-02T10:55:57;2.66;;;1.00;;
48809;SDS011;40070;47.322;18.784;2023-04-02T10:58:04;2.07;;;0.90;;
48809;SDS011;40070;47.322;18.784;2023-04-02T11:00:15;1.97;;;0.80;;
48809;SDS011;40070;47.322;18.784;2023-04-02T11:02:23;2.75;;;1.00;;
48809;SDS011;40070;47.322;18.784;2023-04-02T11:04:30;2.26;;;1.00;;
48809;SDS011;40070;47.322;18.784;2023-04-02T11:06:22;2.46;;;0.90;;
48809;SDS011;40070;47.322;18.784;2023-04-02T11:08:40;2.07;;;1.00;;
48809;SDS011;40070;47.322;18.784;2023-04-02T11:10:37;2.08;;;0.90;;
48809;SDS011;40070;47.322;18.784;2023-04-02T11:12:40;1.88;;;0.90;;
48809;SDS011;40070;47.322;18.784;2023-04-02T11:14:43;1.98;;;0.90;;
48809;SDS011;40070;47.322;18.784;2023-04-02T11:16:45;2.17;;;0.80;;
48809;SDS011;40070;47.322;18.784;2023-04-02T11:21:44;1.78;;;0.90;;
48809;SDS011;40070;47.322;18.784;2023-04-02T11:23:32;1.98;;;0.80;;
48809;SDS011;40070;47.322;18.784;2023-04-02T11:25:33;1.88;;;0.70;;
48809;SDS011;40070;47.322;18.784;2023-04-02T11:27:49;1.48;;;0.60;;
48809;SDS011;40070;47.322;18.784;2023-04-02T11:30:23;1.97;;;0.70;;
48809;SDS011;40070;47.322;18.784;2023-04-02T11:32:24;3.36;;;1.00;;
48809;SDS011;40070;47.322;18.784;2023-04-02T11:42:36;1.78;;;0.80;;
48809;SDS011;40070;47.322;18.784;2023-04-02T11:44:33;1.88;;;0.80;;
48809;SDS011;40070;47.322;18.784;2023-04-02T11:46:47;2.67;;;0.80;;
48809;SDS011;40070;47.322;18.784;2023-04-02T11:53:55;3.06;;;1.60;;
48809;SDS011;40070;47.322;18.784;2023-04-02T11:55:38;3.65;;;1.70;;
48809;SDS011;40070;47.322;18.784;2023-04-02T12:03:17;2.36;;;1.00;;
48809;SDS011;40070;47.322;18.784;2023-04-02T12:05:02;2.16;;;1.00;;
48809;SDS011;40070;47.322;18.784;2023-04-02T12:09:43;2.26;;;0.90;;
48809;SDS011;40070;47.322;18.784;2023-04-02T12:11:43;1.78;;;0.70;;
48809;SDS011;40070;47.322;18.784;2023-04-02T12:13:48;3.06;;;1.20;;
48809;SDS011;40070;47.322;18.784;2023-04-02T12:16:10;2.27;;;1.10;;
48809;SDS011;40070;47.322;18.784;2023-04-02T12:18:16;2.47;;;0.90;;
48809;SDS011;40070;47.322;18.784;2023-04-02T12:20:20;2.27;;;0.90;;
48809;SDS011;40070;47.322;18.784;2023-04-02T12:22:22;3.26;;;1.40;;
48809;SDS011;40070;47.322;18.784;2023-04-02T12:24:21;3.36;;;1.50;;
48809;SDS011;40070;47.322;18.784;2023-04-02T12:26:28;2.66;;;1.10;;
48809;SDS011;40070;47.322;18.784;2023-04-02T12:28:51;5.43;;;2.20;;
48809;SDS011;40070;47.322;18.784;2023-04-02T12:32:55;6.53;;;2.40;;
48809;SDS011;40070;47.322;18.784;2023-04-02T12:34:58;6.63;;;2.50;;
48809;SDS011;40070;47.322;18.784;2023-04-02T12:37:00;6.82;;;2.40;;
48809;SDS011;40070;47.322;18.784;2023-04-02T12:39:12;3.17;;;1.20;;
48809;SDS011;40070;47.322;18.784;2023-04-02T12:41:15;1.88;;;0.90;;
48809;SDS011;40070;47.322;18.784;2023-04-02T12:43:21;2.38;;;1.00;;
48809;SDS011;40070;47.322;18.784;2023-04-02T12:45:25;1.98;;;0.80;;
48809;SDS011;40070;47.322;18.784;2023-04-02T12:47:19;2.48;;;1.10;;
48809;SDS011;40070;47.322;18.784;2023-04-02T12:49:29;2.78;;;1.00;;
48809;SDS011;40070;47.322;18.784;2023-04-02T12:51:22;3.07;;;1.10;;
48809;SDS011;40070;47.322;18.784;2023-04-02T12:53:37;2.97;;;1.10;;
48809;SDS011;40070;47.322;18.784;2023-04-02T12:55:29;3.07;;;1.10;;
48809;SDS011;40070;47.322;18.784;2023-04-02T12:57:42;2.38;;;1.00;;
48809;SDS011;40070;47.322;18.784;2023-04-02T13:02:20;1.97;;;0.80;;
48809;SDS011;40070;47.322;18.784;2023-04-02T13:04:09;1.39;;;0.60;;
48809;SDS011;40070;47.322;18.784;2023-04-02T13:06:19;1.49;;;0.70;;
48809;SDS011;40070;47.322;18.784;2023-04-02T13:08:41;1.69;;;0.70;;
48809;SDS011;40070;47.322;18.784;2023-04-02T13:10:24;1.69;;;0.70;;
48809;SDS011;40070;47.322;18.784;2023-04-02T13:12:34;1.69;;;0.70;;
48809;SDS011;40070;47.322;18.784;2023-04-02T13:14:22;2.09;;;0.80;;
48809;SDS011;40070;47.322;18.784;2023-04-02T13:16:36;2.08;;;0.90;;
48809;SDS011;40070;47.322;18.784;2023-04-02T13:18:49;1.19;;;0.60;;
48809;SDS011;40070;47.322;18.784;2023-04-02T13:25:12;1.49;;;0.60;;
48809;SDS011;40070;47.322;18.784;2023-04-02T13:27:13;1.99;;;0.70;;
48809;SDS011;40070;47.322;18.784;2023-04-02T13:29:27;1.59;;;0.60;;
48809;SDS011;40070;47.322;18.784;2023-04-02T13:31:28;2.09;;;0.70;;
48809;SDS011;40070;47.322;18.784;2023-04-02T13:33:28;1.69;;;0.70;;
48809;SDS011;40070;47.322;18.784;2023-04-02T13:35:30;2.78;;;0.80;;
48809;SDS011;40070;47.322;18.784;2023-04-02T13:37:31;1.09;;;0.60;;
48809;SDS011;40070;47.322;18.784;2023-04-02T13:39:32;2.39;;;0.70;;
48809;SDS011;40070;47.322;18.784;2023-04-02T13:41:34;2.98;;;0.80;;
48809;SDS011;40070;47.322;18.784;2023-04-02T13:43:35;1.89;;;0.80;;
48809;SDS011;40070;47.322;18.784;2023-04-02T13:45:42;1.59;;;0.60;;
48809;SDS011;40070;47.322;18.784;2023-04-02T13:47:45;3.55;;;1.10;;
48809;SDS011;40070;47.322;18.784;2023-04-02T13:49:46;2.45;;;1.10;;
48809;SDS011;40070;47.322;18.784;2023-04-02T13:51:51;2.74;;;1.20;;
48809;SDS011;40070;47.322;18.784;2023-04-02T13:53:55;2.63;;;1.30;;
48809;SDS011;40070;47.322;18.784;2023-04-02T13:55:57;3.21;;;1.39;;
48809;SDS011;40070;47.322;18.784;2023-04-02T13:57:58;5.91;;;2.89;;
48809;SDS011;40070;47.322;18.784;2023-04-02T13:59:59;6.99;;;3.29;;
48809;SDS011;40070;47.322;18.784;2023-04-02T14:02:03;10.39;;;3.89;;
48809;SDS011;40070;47.322;18.784;2023-04-02T14:04:03;3.83;;;1.50;;
48809;SDS011;40070;47.322;18.784;2023-04-02T14:06:31;3.15;;;1.00;;
48809;SDS011;40070;47.322;18.784;2023-04-02T14:24:41;2.27;;;0.90;;